Time;durP1;ratioP1;P1;durP2;ratioP2;P2;SDS_P1;SDS_P2;PMS_P1;PMS_P2;Temp;Humidity;BMP_temperature;BMP_pressure;BME280_temperature;BME280_humidity;BME280_pressure;Samples;Min_cycle;Max_cycle;Signal;HPM_P1;HPM_P2
2022/11/09 00:00:53;;;;;;;5.15;2.40;;;14.10;99.90;;;;;;4776683;30;20051;-71
2022/11/09 00:03:19;;;;;;;7.40;3.10;;;14.20;99.90;;;;;;4776619;30;20047;-71
2022/11/09 00:05:55;;;;;;;7.18;3.40;;;14.30;99.90;;;;;;4775578;30;20059;-71
2022/11/09 00:08:21;;;;;;;4.78;2.70;;;14.30;99.90;;;;;;4776232;30;20345;-71
2022/11/09 00:10:47;;;;;;;9.85;4.07;;;14.30;99.90;;;;;;4776060;30;20059;-71
2022/11/09 00:13:12;;;;;;;5.40;3.28;;;14.20;99.90;;;;;;4776366;30;20058;-71
2022/11/09 00:15:38;;;;;;;7.97;4.00;;;14.10;99.90;;;;;;4776229;30;20084;-71
2022/11/09 00:18:04;;;;;;;6.53;3.53;;;14.20;99.90;;;;;;4776131;30;20048;-71
2022/11/09 00:20:30;;;;;;;10.15;5.00;;;14.30;99.90;;;;;;4760419;30;20089;-71
2022/11/09 00:22:56;;;;;;;8.77;3.35;;;14.30;99.90;;;;;;4776072;30;20048;-71
2022/11/09 00:25:21;;;;;;;6.75;3.38;;;14.40;99.90;;;;;;4790035;30;20350;-71
2022/11/09 00:27:47;;;;;;;6.80;3.70;;;14.40;99.90;;;;;;4776020;30;20054;-71
2022/11/09 00:30:13;;;;;;;8.73;3.40;;;14.40;99.90;;;;;;4775910;30;20048;-71
2022/11/09 00:32:38;;;;;;;6.28;3.20;;;14.30;99.90;;;;;;4790019;30;20105;-71
2022/11/09 00:35:04;;;;;;;9.88;3.40;;;14.20;99.90;;;;;;4790591;30;20155;-71
2022/11/09 00:37:30;;;;;;;6.13;2.70;;;14.00;99.90;;;;;;4793856;30;20043;-71
2022/11/09 00:39:57;;;;;;;5.18;2.72;;;14.00;99.90;;;;;;4793715;29;20444;-71
2022/11/09 00:42:23;;;;;;;5.65;2.50;;;13.90;99.90;;;;;;4793696;29;20043;-71
2022/11/09 00:44:48;;;;;;;6.18;2.38;;;13.80;99.90;;;;;;4793666;29;20169;-72
2022/11/09 00:47:14;;;;;;;5.43;2.42;;;13.90;99.90;;;;;;4793573;29;20055;-71
2022/11/09 00:49:40;;;;;;;5.38;2.47;;;13.90;99.90;;;;;;4793664;30;20047;-71
2022/11/09 00:52:06;;;;;;;7.07;2.45;;;14.00;99.90;;;;;;4792504;30;20422;-71
2022/11/09 00:54:31;;;;;;;5.78;2.42;;;14.00;99.90;;;;;;4792673;30;20079;-72
2022/11/09 00:56:57;;;;;;;5.70;2.42;;;14.10;99.90;;;;;;4792446;30;20047;-71
2022/11/09 00:59:23;;;;;;;7.82;2.60;;;14.00;99.90;;;;;;4793490;30;20039;-71
2022/11/09 01:01:48;;;;;;;3.65;2.40;;;14.00;99.90;;;;;;4793698;29;20050;-71
2022/11/09 01:04:14;;;;;;;6.57;2.65;;;13.90;99.90;;;;;;4792513;30;20120;-71
2022/11/09 01:06:40;;;;;;;5.07;2.60;;;13.80;99.90;;;;;;4792196;30;20051;-72
2022/11/09 01:09:05;;;;;;;5.90;2.25;;;13.90;99.90;;;;;;4793265;29;20084;-71
2022/11/09 01:11:31;;;;;;;3.67;2.78;;;13.90;99.90;;;;;;4793110;29;20441;-71
2022/11/09 01:13:59;;;;;;;7.72;2.80;;;14.00;99.90;;;;;;4793300;30;20043;-71
2022/11/09 01:16:25;;;;;;;5.72;2.47;;;13.90;99.90;;;;;;4793418;30;20422;-71
2022/11/09 01:18:55;;;;;;;6.72;2.80;;;13.90;99.90;;;;;;4793061;30;20074;-71
2022/11/09 01:21:21;;;;;;;6.88;2.97;;;13.80;99.90;;;;;;4793055;29;20334;-71
2022/11/09 01:23:46;;;;;;;5.65;2.70;;;13.60;99.90;;;;;;4793377;29;20047;-71
2022/11/09 01:26:14;;;;;;;8.10;3.10;;;13.60;99.90;;;;;;4793072;30;20051;-71
2022/11/09 01:28:40;;;;;;;7.20;3.30;;;13.50;99.90;;;;;;4793134;29;20061;-71
2022/11/09 01:31:10;;;;;;;8.15;3.25;;;13.50;99.90;;;;;;4793058;29;20050;-71
2022/11/09 01:33:35;;;;;;;6.70;3.10;;;13.40;99.90;;;;;;4792905;29;20039;-71
2022/11/09 01:36:07;;;;;;;6.10;2.75;;;13.50;99.90;;;;;;4791715;30;20051;-71
2022/11/09 01:38:35;;;;;;;8.90;3.35;;;13.60;99.90;;;;;;4792439;29;20337;-71
2022/11/09 01:41:01;;;;;;;7.50;3.03;;;13.60;99.90;;;;;;4792887;29;20082;-71
2022/11/09 01:43:27;;;;;;;11.38;3.00;;;13.70;99.90;;;;;;4792846;29;20136;-71
2022/11/09 01:45:58;;;;;;;7.18;3.42;;;13.50;99.90;;;;;;4792930;29;20125;-71
2022/11/09 01:48:50;;;;;;;8.13;3.08;;;13.60;99.90;;;;;;4792631;30;20047;-71
2022/11/09 01:51:27;;;;;;;7.78;3.22;;;13.60;99.90;;;;;;4793064;29;20051;-71
2022/11/09 01:53:58;;;;;;;7.82;3.10;;;13.70;99.90;;;;;;4792533;29;20140;-71
2022/11/09 01:56:26;;;;;;;13.70;3.25;;;13.70;99.90;;;;;;4792249;30;20047;-71
2022/11/09 01:59:01;;;;;;;13.63;3.50;;;13.80;99.90;;;;;;4792650;29;20055;-72
2022/11/09 02:01:26;;;;;;;12.25;3.20;;;13.70;99.90;;;;;;4792492;30;20080;-71
2022/11/09 02:04:08;;;;;;;12.07;3.35;;;13.80;99.90;;;;;;4792607;30;20148;-71
2022/11/09 02:06:35;;;;;;;7.20;3.05;;;13.90;99.90;;;;;;4792025;30;20047;-71
2022/11/09 02:09:33;;;;;;;12.02;4.03;;;13.90;99.90;;;;;;4792092;30;20103;-72
2022/11/09 02:11:59;;;;;;;8.95;2.78;;;14.10;99.90;;;;;;4780731;30;20059;-71
2022/11/09 02:14:26;;;;;;;11.93;3.35;;;14.20;99.90;;;;;;4791098;30;20112;-71
2022/11/09 02:16:52;;;;;;;7.60;2.72;;;14.20;99.90;;;;;;4792204;30;20062;-71
2022/11/09 02:19:18;;;;;;;10.02;3.30;;;14.20;99.90;;;;;;4792060;30;20051;-71
2022/11/09 02:21:44;;;;;;;12.02;3.35;;;14.20;99.90;;;;;;4792265;29;20043;-72
2022/11/09 02:24:09;;;;;;;9.43;3.30;;;14.20;99.90;;;;;;4791937;30;20074;-71
2022/11/09 02:26:49;;;;;;;10.48;3.50;;;14.10;99.90;;;;;;4792080;29;20205;-71
2022/11/09 02:29:40;;;;;;;13.95;3.35;;;14.10;99.90;;;;;;4792220;29;20098;-71
2022/11/09 02:32:21;;;;;;;10.75;3.40;;;14.10;99.90;;;;;;4791805;29;20051;-72
2022/11/09 02:34:47;;;;;;;10.63;2.80;;;14.00;99.90;;;;;;4792091;29;20070;-71
2022/11/09 02:37:23;;;;;;;8.90;2.92;;;13.80;99.90;;;;;;4791393;29;20523;-71
2022/11/09 02:39:49;;;;;;;8.57;3.08;;;13.60;99.90;;;;;;4791691;30;20050;-71
2022/11/09 02:42:16;;;;;;;9.63;3.00;;;13.60;99.90;;;;;;4792025;29;20046;-71
2022/11/09 02:44:48;;;;;;;11.30;2.75;;;13.60;99.90;;;;;;4790832;30;20049;-74
2022/11/09 02:47:14;;;;;;;10.95;3.17;;;13.60;99.90;;;;;;4791612;29;20571;-71
2022/11/09 02:49:40;;;;;;;9.35;2.60;;;13.60;99.90;;;;;;4791721;29;20442;-71
2022/11/09 02:52:05;;;;;;;9.35;2.63;;;13.60;99.90;;;;;;4790785;30;20059;-71
2022/11/09 02:54:31;;;;;;;11.18;2.88;;;13.60;99.90;;;;;;4790704;30;20051;-71
2022/11/09 02:56:57;;;;;;;8.77;2.75;;;13.60;99.90;;;;;;4790925;30;20393;-71
2022/11/09 02:59:22;;;;;;;9.70;2.90;;;13.70;99.90;;;;;;4791428;29;20043;-72
2022/11/09 03:01:48;;;;;;;13.38;3.92;;;13.60;99.90;;;;;;4791836;29;20379;-71
2022/11/09 03:04:14;;;;;;;10.00;3.08;;;13.50;99.90;;;;;;4760752;30;20353;-71
2022/11/09 03:06:39;;;;;;;12.10;3.15;;;13.50;99.90;;;;;;4790153;30;20055;-71
2022/11/09 03:09:10;;;;;;;12.63;2.90;;;13.60;99.90;;;;;;4791608;29;20047;-71
2022/11/09 03:11:37;;;;;;;16.33;3.03;;;13.50;99.90;;;;;;4791107;29;20055;-71
2022/11/09 03:14:03;;;;;;;11.77;2.90;;;13.50;99.90;;;;;;4790272;30;20104;-72
2022/11/09 03:16:29;;;;;;;6.13;2.60;;;13.30;99.90;;;;;;4791582;29;20035;-71
2022/11/09 03:18:56;;;;;;;8.30;2.97;;;13.30;99.90;;;;;;4791356;30;20051;-71
2022/11/09 03:21:23;;;;;;;13.23;2.67;;;13.40;99.90;;;;;;4790392;30;20345;-72
2022/11/09 03:23:49;;;;;;;11.73;2.83;;;13.40;99.90;;;;;;4791243;29;20323;-71
2022/11/09 03:26:15;;;;;;;11.98;3.85;;;13.40;99.90;;;;;;4791131;30;20051;-71
2022/11/09 03:28:41;;;;;;;10.98;2.72;;;13.40;99.90;;;;;;4790842;29;20079;-71
2022/11/09 03:31:08;;;;;;;10.15;3.20;;;13.40;99.90;;;;;;4791219;30;20122;-71
2022/11/09 03:33:34;;;;;;;12.45;2.42;;;13.30;99.90;;;;;;4791140;29;20494;-71
2022/11/09 03:36:00;;;;;;;17.73;2.92;;;13.20;99.90;;;;;;4791525;30;20083;-71
2022/11/09 03:38:25;;;;;;;7.78;2.58;;;13.30;99.90;;;;;;4791042;30;20039;-71
2022/11/09 03:40:51;;;;;;;17.45;2.67;;;13.20;99.90;;;;;;4791191;29;20337;-71
2022/11/09 03:43:17;;;;;;;10.95;2.53;;;13.20;99.90;;;;;;4790956;29;20342;-71
2022/11/09 03:45:43;;;;;;;9.18;2.92;;;13.20;99.90;;;;;;4790712;30;20047;-71
2022/11/09 03:48:09;;;;;;;9.13;2.47;;;13.30;99.90;;;;;;4791122;29;20054;-71
2022/11/09 03:50:39;;;;;;;12.45;2.88;;;13.10;99.90;;;;;;4790820;29;20043;-71
2022/11/09 03:53:06;;;;;;;13.90;2.25;;;13.10;99.90;;;;;;4791015;30;20043;-72
2022/11/09 03:55:32;;;;;;;11.40;2.28;;;13.10;99.90;;;;;;4790757;29;20055;-71
2022/11/09 03:57:57;;;;;;;13.55;2.42;;;13.20;99.90;;;;;;4789956;30;20047;-71
2022/11/09 04:00:23;;;;;;;10.85;2.50;;;13.10;99.90;;;;;;4791194;30;20050;-71
2022/11/09 04:02:49;;;;;;;10.50;2.20;;;13.10;99.90;;;;;;4775079;30;20044;-71
2022/11/09 04:05:15;;;;;;;14.88;2.33;;;13.20;99.90;;;;;;4791128;30;20330;-71
2022/11/09 04:07:51;;;;;;;15.40;2.90;;;13.20;99.90;;;;;;4790605;29;20054;-71
2022/11/09 04:10:18;;;;;;;14.77;2.60;;;13.20;99.90;;;;;;4790515;30;20426;-71
2022/11/09 04:12:44;;;;;;;12.80;2.78;;;13.10;99.90;;;;;;4791035;29;20040;-71
2022/11/09 04:15:10;;;;;;;11.82;2.33;;;13.20;99.90;;;;;;4790853;30;20334;-72
2022/11/09 04:17:36;;;;;;;11.13;2.58;;;13.20;99.90;;;;;;4791308;29;20119;-72
2022/11/09 04:20:02;;;;;;;16.33;2.30;;;13.20;99.90;;;;;;4794228;29;20540;-72
2022/11/09 04:22:28;;;;;;;12.60;2.42;;;13.20;99.90;;;;;;4794377;29;20384;-71
2022/11/09 04:24:53;;;;;;;12.40;2.50;;;13.30;99.90;;;;;;4793240;30;20054;-72
2022/11/09 04:27:19;;;;;;;8.07;2.33;;;13.30;99.90;;;;;;4793087;30;20043;-72
2022/11/09 04:29:44;;;;;;;9.10;2.15;;;13.30;99.90;;;;;;4793009;30;20146;-71
2022/11/09 04:32:10;;;;;;;14.93;2.33;;;13.30;99.90;;;;;;4793828;30;20414;-74
2022/11/09 04:34:36;;;;;;;12.60;2.55;;;13.20;99.90;;;;;;4793981;29;20122;-71
2022/11/09 04:37:02;;;;;;;14.00;2.25;;;13.20;99.90;;;;;;4793366;30;20416;-71
2022/11/09 04:39:27;;;;;;;11.95;1.98;;;13.20;99.90;;;;;;4793728;29;20043;-71
2022/11/09 04:41:53;;;;;;;12.68;2.03;;;13.10;99.90;;;;;;4793695;29;20048;-71
2022/11/09 04:44:19;;;;;;;14.88;2.65;;;13.10;99.90;;;;;;4793983;29;20055;-71
2022/11/09 04:46:44;;;;;;;10.32;2.30;;;13.10;99.90;;;;;;4793687;30;20054;-71
2022/11/09 04:49:10;;;;;;;12.68;2.40;;;13.10;99.90;;;;;;4792643;30;20134;-71
2022/11/09 04:51:36;;;;;;;14.65;2.53;;;13.10;99.90;;;;;;4793450;29;20078;-71
2022/11/09 04:54:01;;;;;;;17.13;2.25;;;13.10;99.90;;;;;;4793696;29;20047;-72
2022/11/09 04:56:27;;;;;;;9.80;2.90;;;13.10;99.90;;;;;;4793736;30;20453;-71
2022/11/09 04:58:53;;;;;;;11.10;2.22;;;13.20;99.90;;;;;;4793619;30;20334;-71
2022/11/09 05:01:18;;;;;;;13.40;2.63;;;13.30;99.90;;;;;;4792773;30;20338;-72
2022/11/09 05:03:44;;;;;;;13.45;2.90;;;13.30;99.90;;;;;;4793323;29;20399;-71
2022/11/09 05:08:55;;;;;;;13.35;2.95;;;13.20;99.90;;;;;;4793235;29;20138;-71
2022/11/09 05:11:21;;;;;;;9.70;2.22;;;13.20;99.90;;;;;;4793090;29;20058;-71
2022/11/09 05:13:47;;;;;;;9.18;2.33;;;13.20;99.90;;;;;;4793508;29;20052;-71
2022/11/09 05:16:13;;;;;;;11.30;2.13;;;13.10;99.90;;;;;;4793239;29;20107;-71
2022/11/09 05:18:39;;;;;;;13.82;3.08;;;13.10;99.90;;;;;;4792487;30;20334;-71
2022/11/09 05:21:05;;;;;;;10.77;2.45;;;13.20;99.90;;;;;;4792142;30;20066;-71
2022/11/09 05:26:15;;;;;;;11.40;2.70;;;13.10;99.90;;;;;;4793082;29;20375;-71
2022/11/09 05:28:41;;;;;;;12.68;2.83;;;13.10;99.90;;;;;;4793148;29;20043;-71
2022/11/09 05:31:06;;;;;;;10.77;2.58;;;13.20;99.90;;;;;;4792283;30;20043;-71
2022/11/09 05:33:32;;;;;;;6.72;2.17;;;13.10;99.90;;;;;;4792820;30;20051;-71
2022/11/09 05:35:58;;;;;;;10.63;2.47;;;13.10;99.90;;;;;;4792998;30;20044;-71
2022/11/09 05:38:24;;;;;;;9.80;2.30;;;13.10;99.90;;;;;;4792579;30;20122;-71
2022/11/09 05:40:51;;;;;;;7.15;2.55;;;13.00;99.90;;;;;;4793077;29;20043;-71
2022/11/09 05:43:17;;;;;;;8.85;2.80;;;13.10;99.90;;;;;;4792746;29;20047;-71
2022/11/09 05:45:43;;;;;;;9.52;2.67;;;13.20;99.90;;;;;;4792697;29;20054;-71
2022/11/09 05:48:10;;;;;;;12.98;2.83;;;13.20;99.90;;;;;;4792807;29;20047;-71
2022/11/09 05:50:37;;;;;;;12.85;2.83;;;13.10;99.90;;;;;;4792382;29;20510;-71
2022/11/09 05:53:02;;;;;;;8.23;2.30;;;13.00;99.90;;;;;;4792546;29;20061;-71
2022/11/09 05:55:28;;;;;;;11.57;2.78;;;13.10;99.90;;;;;;4792460;29;20124;-71
2022/11/09 05:57:55;;;;;;;12.98;2.75;;;13.20;99.90;;;;;;4792523;29;20055;-71
2022/11/09 06:00:21;;;;;;;9.82;2.83;;;13.20;99.90;;;;;;4792514;29;20108;-72
2022/11/09 06:02:47;;;;;;;15.73;3.20;;;13.20;99.90;;;;;;4792687;30;20058;-71
2022/11/09 06:05:13;;;;;;;8.95;2.55;;;13.20;99.90;;;;;;4792339;29;20039;-71
2022/11/09 06:07:39;;;;;;;10.68;2.50;;;13.10;99.90;;;;;;4792125;29;20078;-72
2022/11/09 06:10:05;;;;;;;20.08;3.05;;;13.10;99.90;;;;;;4792247;30;20433;-71
2022/11/09 06:12:30;;;;;;;12.75;2.78;;;13.20;99.90;;;;;;4792111;30;20112;-71
2022/11/09 06:14:56;;;;;;;13.50;2.80;;;13.20;99.90;;;;;;4792441;30;20043;-71
2022/11/09 06:17:22;;;;;;;18.48;3.30;;;13.20;99.90;;;;;;4792100;30;20342;-71
2022/11/09 06:19:48;;;;;;;10.38;2.50;;;13.10;99.90;;;;;;4792057;30;20063;-71
2022/11/09 06:22:13;;;;;;;8.98;2.40;;;13.10;99.90;;;;;;4792207;29;20051;-71
2022/11/09 06:24:39;;;;;;;11.70;2.58;;;13.10;99.90;;;;;;4792314;30;20074;-71
2022/11/09 06:27:05;;;;;;;8.85;2.35;;;13.00;99.90;;;;;;4790962;30;20107;-72
2022/11/09 06:29:30;;;;;;;13.45;2.60;;;13.00;99.90;;;;;;4792212;29;20039;-71
2022/11/09 06:31:56;;;;;;;10.98;2.38;;;13.00;99.90;;;;;;4791768;30;20047;-71
2022/11/09 06:34:22;;;;;;;9.60;2.60;;;13.00;99.90;;;;;;4791795;29;20046;-71
2022/11/09 06:36:47;;;;;;;10.88;2.33;;;13.10;99.90;;;;;;4791753;29;20330;-71
2022/11/09 06:39:13;;;;;;;10.90;2.33;;;13.10;99.90;;;;;;4791999;30;20039;-72
2022/11/09 06:41:39;;;;;;;9.88;2.60;;;13.00;99.90;;;;;;4791829;29;20039;-71
2022/11/09 06:44:04;;;;;;;10.75;2.40;;;13.00;99.90;;;;;;4790776;30;20050;-71
2022/11/09 06:46:31;;;;;;;8.40;2.47;;;13.00;99.90;;;;;;4791851;29;20039;-71
2022/11/09 06:48:57;;;;;;;11.52;2.40;;;13.10;99.90;;;;;;4791444;30;20092;-71
2022/11/09 06:51:23;;;;;;;11.55;3.05;;;13.00;99.90;;;;;;4790538;30;20051;-72
2022/11/09 06:53:48;;;;;;;11.48;2.33;;;13.00;99.90;;;;;;4791882;29;20079;-71
2022/11/09 06:56:14;;;;;;;10.40;2.30;;;13.10;99.90;;;;;;4791530;29;20047;-71
2022/11/09 06:58:40;;;;;;;11.63;2.60;;;13.00;99.90;;;;;;4791835;30;20039;-71
2022/11/09 07:01:08;;;;;;;12.30;2.25;;;12.90;99.90;;;;;;4790791;30;20087;-71
2022/11/09 07:03:34;;;;;;;8.98;2.22;;;12.90;99.90;;;;;;4791503;29;20115;-71
2022/11/09 07:06:04;;;;;;;11.90;2.25;;;13.00;99.90;;;;;;4791757;29;20497;-71
2022/11/09 07:08:30;;;;;;;7.75;2.10;;;12.90;99.90;;;;;;4791242;29;20172;-71
2022/11/09 07:11:05;;;;;;;11.48;2.20;;;12.90;99.90;;;;;;4790293;30;20126;-71
2022/11/09 07:13:31;;;;;;;11.55;2.50;;;13.00;99.90;;;;;;4791172;29;20102;-71
2022/11/09 07:15:57;;;;;;;17.73;3.47;;;13.00;99.90;;;;;;4791251;30;20093;-71
2022/11/09 07:18:22;;;;;;;11.82;2.60;;;13.00;99.90;;;;;;4791429;29;20123;-71
2022/11/09 07:20:48;;;;;;;10.57;2.55;;;13.00;99.90;;;;;;4791543;29;20047;-71
2022/11/09 07:23:14;;;;;;;13.07;3.17;;;13.00;99.90;;;;;;4790316;30;20085;-71
2022/11/09 07:25:40;;;;;;;10.43;2.38;;;12.90;99.90;;;;;;4779085;30;20079;-74
2022/11/09 07:28:08;;;;;;;13.50;2.47;;;12.90;99.90;;;;;;4774602;30;20047;-71
2022/11/09 07:30:35;;;;;;;10.18;2.50;;;12.90;99.90;;;;;;4788132;30;20117;-72
2022/11/09 07:33:01;;;;;;;11.73;1.90;;;12.90;99.90;;;;;;4791071;29;20130;-72
2022/11/09 07:35:27;;;;;;;11.07;1.92;;;12.90;99.90;;;;;;4791132;29;20161;-72
2022/11/09 07:37:53;;;;;;;10.77;2.53;;;12.90;99.90;;;;;;4790682;29;20465;-72
2022/11/09 07:40:19;;;;;;;17.23;2.20;;;13.00;99.90;;;;;;4791091;29;20043;-71
2022/11/09 07:42:45;;;;;;;23.85;3.38;;;13.00;99.90;;;;;;4790034;29;20049;-72
2022/11/09 07:45:11;;;;;;;11.27;2.33;;;13.00;99.90;;;;;;4790000;29;20043;-70
2022/11/09 07:47:36;;;;;;;10.25;2.80;;;12.90;99.90;;;;;;4791143;29;20047;-69
2022/11/09 07:50:03;;;;;;;18.25;2.08;;;13.10;99.90;;;;;;4790143;30;20124;-69
2022/11/09 07:52:28;;;;;;;12.63;3.15;;;13.10;99.90;;;;;;4791196;29;20079;-68
2022/11/09 07:54:54;;;;;;;12.70;2.70;;;13.10;99.90;;;;;;4793547;30;20086;-68
2022/11/09 07:57:20;;;;;;;11.50;1.95;;;13.10;99.90;;;;;;4794458;30;20070;-68
2022/11/09 07:59:47;;;;;;;16.95;2.55;;;13.10;99.90;;;;;;4794211;29;20039;-68
2022/11/09 08:02:13;;;;;;;11.68;2.40;;;13.10;99.90;;;;;;4778431;30;20350;-68
2022/11/09 08:04:38;;;;;;;15.48;2.13;;;13.10;99.90;;;;;;4776438;30;20052;-68
2022/11/09 08:07:04;;;;;;;8.55;2.03;;;13.00;99.90;;;;;;4776145;30;20251;-68
2022/11/09 08:09:30;;;;;;;14.90;2.55;;;13.10;99.90;;;;;;4775437;30;20051;-68
2022/11/09 08:11:55;;;;;;;11.55;2.47;;;13.10;99.90;;;;;;4775033;30;20091;-68
2022/11/09 08:14:21;;;;;;;14.63;2.20;;;13.10;99.90;;;;;;4776216;30;20043;-68
2022/11/09 08:16:47;;;;;;;15.45;2.20;;;13.20;99.90;;;;;;4776825;30;20341;-68
2022/11/09 08:19:12;;;;;;;16.55;2.95;;;13.10;99.90;;;;;;4775268;30;20040;-68
2022/11/09 08:21:38;;;;;;;21.08;2.90;;;13.20;99.90;;;;;;4776548;30;20047;-68
2022/11/09 08:24:04;;;;;;;15.30;2.40;;;13.10;99.90;;;;;;4776207;30;20090;-68
2022/11/09 08:26:31;;;;;;;12.35;2.38;;;13.30;99.90;;;;;;4776168;30;20055;-68
2022/11/09 08:28:56;;;;;;;14.10;2.33;;;13.30;99.90;;;;;;4776196;30;20339;-68
2022/11/09 08:31:22;;;;;;;18.02;2.72;;;13.40;99.90;;;;;;4775034;30;20047;-68
2022/11/09 08:33:48;;;;;;;15.02;2.35;;;13.30;99.90;;;;;;4776133;30;20044;-68
2022/11/09 08:36:15;;;;;;;17.63;2.63;;;13.20;99.90;;;;;;4776052;30;20052;-68
2022/11/09 08:38:42;;;;;;;18.90;2.75;;;13.20;99.90;;;;;;4774692;30;20434;-69
2022/11/09 08:41:08;;;;;;;15.15;2.53;;;13.30;99.90;;;;;;4776014;30;20062;-68
2022/11/09 08:43:34;;;;;;;11.82;2.17;;;13.40;99.90;;;;;;4775929;30;20146;-68
2022/11/09 08:46:00;;;;;;;10.25;2.63;;;13.40;99.90;;;;;;4775884;30;20075;-68
2022/11/09 08:48:25;;;;;;;17.90;2.95;;;13.30;99.90;;;;;;4776060;30;20052;-68
2022/11/09 08:50:56;;;;;;;18.65;3.25;;;13.50;99.90;;;;;;4775698;30;20122;-68
2022/11/09 08:53:23;;;;;;;12.70;2.20;;;13.50;99.90;;;;;;4775535;30;20449;-69
2022/11/09 08:55:49;;;;;;;10.10;2.08;;;13.50;99.90;;;;;;4775677;30;20115;-68
2022/11/09 08:58:15;;;;;;;12.52;2.70;;;13.50;99.90;;;;;;4774446;30;20063;-69
2022/11/09 09:00:40;;;;;;;18.33;3.20;;;13.60;99.90;;;;;;4774932;30;20127;-68
2022/11/09 09:03:06;;;;;;;14.43;3.28;;;13.70;99.90;;;;;;4775588;30;20047;-68
2022/11/09 09:05:35;;;;;;;15.40;2.35;;;13.70;99.90;;;;;;4774420;30;20397;-68
2022/11/09 09:08:03;;;;;;;17.83;2.90;;;13.70;99.90;;;;;;4774038;30;20075;-68
2022/11/09 09:10:29;;;;;;;16.67;2.25;;;13.70;99.90;;;;;;4775529;30;20048;-68
2022/11/09 09:12:55;;;;;;;15.23;2.65;;;13.70;99.90;;;;;;4773712;30;20074;-68
2022/11/09 09:15:22;;;;;;;12.60;2.45;;;13.80;99.90;;;;;;4774327;30;20055;-69
2022/11/09 09:17:47;;;;;;;17.98;2.60;;;13.90;99.90;;;;;;4774554;30;20051;-68
2022/11/09 09:20:13;;;;;;;16.73;3.10;;;13.90;99.90;;;;;;4775317;30;20445;-68
2022/11/09 09:22:39;;;;;;;16.27;2.60;;;13.90;99.90;;;;;;4774214;30;20055;-68
2022/11/09 09:25:05;;;;;;;16.40;2.92;;;13.90;99.90;;;;;;4774264;30;20044;-70
2022/11/09 09:27:31;;;;;;;12.73;2.63;;;14.00;99.90;;;;;;4773878;30;20426;-71
2022/11/09 09:29:57;;;;;;;16.58;3.00;;;14.10;99.90;;;;;;4791471;29;20046;-69
2022/11/09 09:32:23;;;;;;;14.90;2.28;;;14.10;99.90;;;;;;4791724;30;20051;-69
2022/11/09 09:34:49;;;;;;;13.75;2.65;;;14.00;99.90;;;;;;4793198;29;20039;-68
2022/11/09 09:37:16;;;;;;;12.10;2.30;;;14.10;99.90;;;;;;4792652;29;20449;-69
2022/11/09 09:39:42;;;;;;;14.57;2.50;;;14.20;99.90;;;;;;4792851;29;20042;-69
2022/11/09 09:42:16;;;;;;;14.70;3.42;;;14.20;99.90;;;;;;4792696;29;20446;-67
2022/11/09 09:44:57;;;;;;;15.15;3.10;;;14.20;99.90;;;;;;4792082;30;20051;-66
2022/11/09 09:47:56;;;;;;;20.50;4.50;;;14.00;99.90;;;;;;4792957;29;20050;-67
2022/11/09 09:50:36;;;;;;;14.63;2.80;;;14.00;99.90;;;;;;4792391;29;20327;-68
2022/11/09 09:53:30;;;;;;;16.83;3.20;;;14.10;99.90;;;;;;4785961;29;20044;-67
2022/11/09 09:56:02;;;;;;;21.13;3.72;;;14.20;99.90;;;;;;4773569;30;20154;-67
2022/11/09 09:58:31;;;;;;;18.58;4.07;;;14.30;99.90;;;;;;4792181;30;20716;-67
2022/11/09 10:01:19;;;;;;;16.92;3.13;;;14.50;99.90;;;;;;4788335;29;20054;-67
2022/11/09 10:03:46;;;;;;;10.52;2.65;;;14.50;99.90;;;;;;4778909;30;20051;-68
2022/11/09 10:06:30;;;;;;;13.13;3.25;;;14.70;99.90;;;;;;4790271;29;20094;-70
2022/11/09 10:09:02;;;;;;;13.88;2.90;;;14.90;99.90;;;;;;4791552;30;20166;-67
2022/11/09 10:11:52;;;;;;;10.82;2.83;;;15.00;99.90;;;;;;4792279;29;20130;-76
2022/11/09 10:14:55;;;;;;;12.15;3.28;;;14.80;99.90;;;;;;4791223;30;20051;-75
2022/11/09 10:17:45;;;;;;;16.40;3.40;;;14.80;99.90;;;;;;4790785;30;20054;-67
2022/11/09 10:20:29;;;;;;;11.27;2.90;;;15.10;99.90;;;;;;4791145;30;20055;-67
2022/11/09 10:23:11;;;;;;;15.73;3.00;;;15.30;99.90;;;;;;4787657;30;20055;-70
2022/11/09 10:25:37;;;;;;;17.25;3.72;;;15.50;99.90;;;;;;4790611;29;20118;-70
2022/11/09 10:28:12;;;;;;;9.27;2.53;;;15.70;99.90;;;;;;4790778;30;20058;-70
2022/11/09 10:30:39;;;;;;;14.13;3.15;;;15.70;99.90;;;;;;4791931;29;20047;-70
2022/11/09 10:33:15;;;;;;;14.40;3.10;;;15.70;99.90;;;;;;4792240;29;20050;-69
2022/11/09 10:35:47;;;;;;;;;;;15.50;99.90;;;;;;4792401;29;20438;-70
2022/11/09 10:38:35;;;;;;;13.35;2.90;;;15.30;99.90;;;;;;4791498;29;19973;-70
2022/11/09 10:41:05;;;;;;;14.98;2.83;;;15.40;99.90;;;;;;4792131;29;20044;-69
2022/11/09 10:43:30;;;;;;;16.98;2.95;;;15.70;99.90;;;;;;4791903;29;20141;-69
2022/11/09 10:45:59;;;;;;;14.07;2.70;;;16.10;99.90;;;;;;4791783;29;20059;-70
2022/11/09 10:48:34;;;;;;;12.02;3.67;;;16.20;99.90;;;;;;4791651;29;20043;-70
2022/11/09 10:51:00;;;;;;;12.50;3.08;;;16.20;99.90;;;;;;4775750;30;20426;-70
2022/11/09 10:53:35;;;;;;;15.32;3.10;;;15.90;99.90;;;;;;4791468;29;20047;-69
2022/11/09 10:56:12;;;;;;;15.25;3.53;;;15.80;99.90;;;;;;4790798;30;20079;-70
2022/11/09 10:58:45;;;;;;;12.05;2.92;;;15.60;99.90;;;;;;4791861;29;20315;-69
2022/11/09 11:01:17;;;;;;;14.77;2.90;;;15.50;99.90;;;;;;4791383;29;20047;-69
2022/11/09 11:03:44;;;;;;;15.45;3.45;;;15.20;99.90;;;;;;4791736;29;20055;-68
2022/11/09 11:06:22;;;;;;;11.23;2.92;;;15.30;99.90;;;;;;4791469;29;20047;-69
2022/11/09 11:08:56;;;;;;;11.02;2.75;;;15.40;99.90;;;;;;4791205;29;20062;-69
2022/11/09 11:11:22;;;;;;;9.75;2.53;;;15.20;99.90;;;;;;4791177;29;20043;-69
2022/11/09 11:13:49;;;;;;;10.25;3.53;;;14.90;99.90;;;;;;4791192;29;20055;-70
2022/11/09 11:16:36;;;;;;;8.60;3.15;;;15.00;99.90;;;;;;4791588;29;20079;-69
2022/11/09 11:19:02;;;;;;;16.80;2.90;;;15.20;99.90;;;;;;4791375;29;20114;-69
2022/11/09 11:21:29;;;;;;;14.25;2.90;;;15.30;99.90;;;;;;4791248;29;20126;-69
2022/11/09 11:24:13;;;;;;;11.80;2.95;;;15.10;99.90;;;;;;4791245;29;20043;-71
2022/11/09 11:26:46;;;;;;;14.02;2.78;;;15.30;99.90;;;;;;4790971;29;20047;-69
2022/11/09 11:29:17;;;;;;;10.90;3.17;;;15.40;99.90;;;;;;4790868;29;20105;-73
2022/11/09 11:31:43;;;;;;;17.05;2.88;;;15.30;99.90;;;;;;4790398;30;20333;-69
2022/11/09 11:34:13;;;;;;;14.18;3.08;;;15.00;99.90;;;;;;4791193;29;20047;-69
2022/11/09 11:36:48;;;;;;;13.75;3.25;;;15.10;99.90;;;;;;4788853;29;20148;-70
2022/11/09 11:39:42;;;;;;;12.13;2.75;;;15.00;99.90;;;;;;4780301;29;20044;-69
2022/11/09 11:42:45;;;;;;;11.90;2.60;;;15.20;99.90;;;;;;4790915;29;20358;-69
2022/11/09 11:45:15;;;;;;;9.63;2.50;;;15.30;99.90;;;;;;4786812;30;20445;-74
2022/11/09 11:47:46;;;;;;;9.23;2.55;;;15.30;99.90;;;;;;4788211;30;20106;-70
2022/11/09 11:50:34;;;;;;;15.75;4.05;;;15.40;99.90;;;;;;4790570;29;20050;-72
2022/11/09 11:53:30;;;;;;;16.08;2.90;;;15.20;99.90;;;;;;4790848;30;20087;-69
2022/11/09 11:56:14;;;;;;;12.35;3.03;;;15.20;99.90;;;;;;4791227;29;20044;-72
2022/11/09 11:59:10;;;;;;;12.63;3.30;;;15.10;99.90;;;;;;4790907;29;20070;-68
2022/11/09 12:02:01;;;;;;;12.65;2.70;;;15.20;99.90;;;;;;4791115;29;20126;-69
2022/11/09 12:04:52;;;;;;;16.83;3.20;;;15.40;99.90;;;;;;4772126;30;20413;-69
2022/11/09 12:07:42;;;;;;;13.02;2.80;;;15.50;99.90;;;;;;4790517;29;20094;-69
2022/11/09 12:10:33;;;;;;;14.77;3.28;;;15.50;99.90;;;;;;4790855;30;20051;-68
2022/11/09 12:13:15;;;;;;;12.65;3.38;;;15.50;99.90;;;;;;4789898;30;20358;-69
2022/11/09 12:15:50;;;;;;;13.32;3.42;;;15.40;99.90;;;;;;4789702;30;20126;-66
2022/11/09 12:18:58;;;;;;;14.50;3.22;;;15.30;99.90;;;;;;4790963;30;20122;-71
2022/11/09 12:22:15;;;;;;;16.52;3.90;;;15.10;99.90;;;;;;4791281;30;20051;-71
2022/11/09 12:25:10;;;;;;;11.43;3.03;;;14.90;99.90;;;;;;4770572;30;20051;-67
2022/11/09 12:28:03;;;;;;;15.18;3.38;;;15.00;99.90;;;;;;4790859;30;20129;-67
2022/11/09 12:30:44;;;;;;;18.58;3.13;;;15.00;99.90;;;;;;4790761;29;20109;-66
2022/11/09 12:33:46;;;;;;;14.43;3.17;;;15.00;99.90;;;;;;4790347;30;20104;-76
2022/11/09 12:36:20;;;;;;;9.38;2.90;;;14.80;99.90;;;;;;4761998;30;20051;-67
2022/11/09 12:39:11;;;;;;;16.42;3.38;;;14.70;99.90;;;;;;4790983;29;20121;-67
2022/11/09 12:41:38;;;;;;;13.32;3.05;;;14.90;99.90;;;;;;4793827;29;20055;-67
2022/11/09 12:44:31;;;;;;;16.70;2.95;;;15.10;99.90;;;;;;4777906;30;20059;-68
2022/11/09 12:47:14;;;;;;;15.15;2.65;;;15.30;99.90;;;;;;4793913;29;20070;-67
2022/11/09 12:49:43;;;;;;;11.25;2.80;;;15.40;99.90;;;;;;4793639;29;20119;-68
2022/11/09 12:52:15;;;;;;;12.27;2.50;;;15.50;99.90;;;;;;4793765;29;20052;-67
2022/11/09 12:54:44;;;;;;;9.90;3.03;;;15.40;99.90;;;;;;4793557;30;20100;-67
2022/11/09 12:57:26;;;;;;;10.85;2.40;;;15.50;99.90;;;;;;4783491;29;20044;-72
2022/11/09 12:59:55;;;;;;;10.80;2.55;;;15.40;99.90;;;;;;4774671;30;20043;-70